• Join FlightAware (Why Join?)
  • Login
  • US Flag 
09:17PM EDT


 

Airport Tracker/Info


-or-


 

Live Flight TrackerFlight Track Log ✈ LOG6844 ✈ 21-Aug-2013 ✈ EGEC / CAL - EGPF / GLA

Flight Track Log - Related Links

Times and Time Zones

All times are in EDT time to prevent confusion due to time zone crossing. See the LOG6844 flight status page for this flight to view local times or setup timezone preferences in your user account.

Time Position Orientation Groundspeed Altitude Reporting Facility
EDT Latitude Longitude Course Direction KTS MPH feet Rate Location/Type
05:06AM 55.5002 -5.6388 44° Northeast 1 1 3,100  Level FlightAware UK
05:07AM 55.5160 -5.6119 44° Northeast 1 1 3,600 780 Climbing FlightAware UK
05:08AM 55.5471 -5.5548 46° Northeast 1 1 4,600 720 Climbing FlightAware UK
05:09AM 55.5629 -5.5260 46° Northeast 1 1 4,900 300 Climbing FlightAware UK
05:10AM 55.5837 -5.4858 48° Northeast 1 1 5,000 60 Climbing FlightAware UK
05:10AM 55.6054 -5.4458 46° Northeast 1 1 5,000  Level FlightAware UK
05:11AM 55.6276 -5.4035 47° Northeast 1 1 5,000 -60 Level FlightAware UK
05:12AM 55.6725 -5.3216 46° Northeast 1 1 4,900 -60 Descending FlightAware UK
05:13AM 55.6919 -5.2869 45° Northeast 1 1 4,900 60 Level FlightAware UK
05:14AM 55.7220 -5.2300 47° Northeast 1 1 5,000 60 Climbing FlightAware UK
05:14AM 55.7360 -5.2009 50° Northeast 1 1 5,000  Level FlightAware UK
05:15AM 55.7606 -5.1558 46° Northeast 1 1 5,000  Level FlightAware UK
05:16AM 55.7819 -5.1151 47° Northeast 1 1 5,000 -180 Level FlightAware UK
05:16AM 55.7942 -5.0826 56° Northeast 1 1 4,800 -120 Descending FlightAware UK
05:17AM 55.8128 -5.0206 62° Northeast 1 1 4,900 120 Climbing FlightAware UK
05:18AM 55.8267 -4.9734 62° Northeast 1 1 5,000 60 Climbing FlightAware UK
05:19AM 55.8424 -4.9186 63° Northeast 1 1 5,000  Level FlightAware UK
05:19AM 55.8539 -4.8769 64° Northeast 1 1 5,000 -180 Level FlightAware UK
05:20AM 55.8655 -4.8351 64° Northeast 1 1 4,800 -360 Descending FlightAware UK
05:21AM 55.8774 -4.7893 65° Northeast 1 1 4,600 -480 Descending FlightAware UK
05:21AM 55.8907 -4.7362 66° East 1 1 4,200 -540 Descending FlightAware UK
05:22AM 55.9025 -4.6911 65° Northeast 1 1 3,900 -540 Descending FlightAware UK
05:23AM 55.9140 -4.6339 70° East 1 1 3,500 -480 Descending FlightAware UK
05:24AM 55.9320 -4.5490 69° East 1 1 3,100 -360 Descending FlightAware UK
05:24AM 55.9421 -4.5024 69° East 1 1 2,900 -120 Descending FlightAware UK
05:25AM 55.9544 -4.4506 67° East 1 1 3,000 60 Climbing FlightAware UK
05:26AM 55.9700 -4.3868 66° East 1 1 3,000  Level FlightAware UK
05:27AM 55.9799 -4.3454 67° East 1 1 3,000  Level FlightAware UK
05:27AM 55.9803 -4.3023 89° East 1 1 3,000 -540 Level FlightAware UK
05:28AM 55.9502 -4.2956 173° South 1 1 2,200 -840 Descending FlightAware UK
05:30AM 55.9164 -4.3504 222° Southwest 1 1 1,000 -840 Descending FlightAware UK
05:30AM 55.9051 -4.3716 227° Southwest 1 1 600 -600 Descending FlightAware UK
05:31AM 55.8958 -4.3890 226° Southwest 1 1 300 -360 Descending FlightAware UK
05:32AM 55.8833 -4.4121 226° Southwest 1 1 100 -240 Descending FlightAware UK
05:34AM 55.8719 -4.4331 226° Southwest  Level Estimated
05:41AM 55.8719 -4.4331 29° Northeast  Level Estimated
05:42AM 55.8719 -4.4331 29° Northeast  Level Estimated
05:43AM 55.8719 -4.4331 29° Northeast  Level Estimated
05:44AM 55.8719 -4.4331 29° Northeast  Level Estimated
05:45AM 55.8719 -4.4331 29° Northeast  Level Estimated